Time;durP1;ratioP1;P1;durP2;ratioP2;P2;SDS_P1;SDS_P2;PMS_P1;PMS_P2;Temp;Humidity;BMP_temperature;BMP_pressure;BME280_temperature;BME280_humidity;BME280_pressure;Samples;Min_cycle;Max_cycle;Signal;HPM_P1;HPM_P2
2023/05/01 00:02:12;;;;;;;5.68;4.55;;;;;;;12.36;45.46;99424.91;5088398;28;20322;-75
2023/05/01 00:04:38;;;;;;;6.47;5.45;;;;;;;12.37;45.27;99418.63;5088342;28;20040;-75
2023/05/01 00:07:05;;;;;;;8.90;5.70;;;;;;;12.36;45.42;99422.22;5088662;28;20044;-75
2023/05/01 00:09:32;;;;;;;8.32;4.50;;;;;;;12.35;45.41;99418.72;5087502;28;20066;-75
2023/05/01 00:11:59;;;;;;;6.95;4.65;;;;;;;12.36;45.37;99423.09;5088291;28;20068;-75
2023/05/01 00:14:25;;;;;;;7.70;4.72;;;;;;;12.18;45.43;99389.66;5088687;28;20040;-75
2023/05/01 00:16:52;;;;;;;6.22;4.32;;;;;;;12.33;45.11;99417.97;5087145;28;20044;-75
2023/05/01 00:19:20;;;;;;;6.38;4.43;;;;;;;10.86;45.32;99164.94;5087321;28;20032;-75
2023/05/01 00:21:47;;;;;;;6.72;5.25;;;;;;;12.28;45.29;99411.22;5087232;28;20044;-75
2023/05/01 00:24:14;;;;;;;7.10;4.35;;;;;;;12.26;45.16;99406.00;5088350;28;20289;-75
2023/05/01 00:26:41;;;;;;;6.05;3.95;;;;;;;12.26;45.44;99410.47;5087215;28;20119;-76
2023/05/01 00:29:08;;;;;;;7.22;4.30;;;;;;;12.23;45.33;99406.19;5088260;28;20047;-75
2023/05/01 00:31:35;;;;;;;6.40;4.05;;;;;;;12.21;45.39;99409.88;5087854;28;20044;-75
2023/05/01 00:34:03;;;;;;;8.23;4.43;;;;;;;12.16;45.32;99410.13;5087789;28;20033;-75
2023/05/01 00:36:32;;;;;;;9.60;4.75;;;;;;;12.14;45.23;99409.38;5086984;28;20249;-75
2023/05/01 00:38:58;;;;;;;7.85;4.78;;;;;;;12.12;45.25;99404.16;5087758;28;20192;-75
2023/05/01 00:41:25;;;;;;;5.57;4.70;;;;;;;12.11;45.21;99396.28;5087929;28;20196;-74
2023/05/01 00:43:52;;;;;;;5.55;4.32;;;;;;;12.09;45.41;99400.81;5087036;28;20121;-75
2023/05/01 00:46:19;;;;;;;7.63;4.45;;;;;;;12.07;45.41;99402.72;5086853;28;20074;-75
2023/05/01 00:48:45;;;;;;;5.50;4.22;;;;;;;12.03;45.51;99407.38;5086974;28;20066;-75
2023/05/01 00:51:14;;;;;;;6.90;4.25;;;;;;;11.81;45.41;99364.41;5086685;28;20040;-75
2023/05/01 00:53:45;;;;;;;5.43;4.20;;;;;;;11.99;45.33;99394.31;5087970;28;20231;-74
2023/05/01 00:56:12;;;;;;;4.88;3.47;;;;;;;11.97;45.52;99386.44;5086640;28;20202;-75
2023/05/01 00:58:39;;;;;;;7.85;4.57;;;;;;;11.96;45.51;99394.50;5086578;28;20037;-75
2023/05/01 01:01:06;;;;;;;5.25;3.90;;;;;;;11.73;45.47;99356.91;5086300;28;20048;-75
2023/05/01 01:03:33;;;;;;;6.45;4.18;;;;;;;11.94;45.44;99394.59;5069977;28;20060;-74
2023/05/01 01:06:08;;;;;;;6.18;4.53;;;;;;;11.91;45.51;99397.44;5086356;28;20047;-74
2023/05/01 01:08:41;;;;;;;6.35;4.60;;;;;;;11.88;45.42;99392.31;5087474;28;20068;-74
2023/05/01 01:11:15;;;;;;;5.45;4.40;;;;;;;11.71;45.37;99372.06;5087160;28;20074;-74
2023/05/01 01:13:51;;;;;;;8.02;3.83;;;;;;;11.05;45.40;99263.66;5087341;28;20036;-74
2023/05/01 01:16:25;;;;;;;5.30;4.32;;;;;;;11.83;45.23;99391.72;5086997;28;20346;-75
2023/05/01 01:18:56;;;;;;;8.45;4.63;;;;;;;11.82;45.34;99392.69;5087065;28;20138;-74
2023/05/01 01:21:28;;;;;;;6.20;4.00;;;;;;;11.42;45.40;99338.44;5087535;28;20041;-74
2023/05/01 01:24:19;;;;;;;6.55;5.00;;;;;;;11.77;45.39;99403.56;5087456;28;20063;-75
2023/05/01 01:27:35;;;;;;;7.25;3.70;;;;;;;11.46;45.12;99345.28;5086939;28;20044;-74
2023/05/01 01:30:35;;;;;;;5.70;4.20;;;;;;;11.51;45.51;99357.34;5086801;28;20123;-74
2023/05/01 01:33:37;;;;;;;7.22;4.35;;;;;;;11.71;44.99;99392.47;5078739;28;20066;-74
2023/05/01 01:36:10;;;;;;;5.53;3.80;;;;;;;10.72;45.51;99247.03;5081268;28;20147;-75
2023/05/01 01:38:42;;;;;;;7.95;4.68;;;;;;;11.16;45.54;99318.75;5086583;28;20178;-75
2023/05/01 01:41:13;;;;;;;5.63;4.25;;;;;;;11.63;45.68;99390.25;5085687;28;20039;-75
2023/05/01 01:43:45;;;;;;;6.38;4.07;;;;;;;10.83;45.60;99253.44;5086285;28;20049;-75
2023/05/01 01:46:12;;;;;;;5.13;4.05;;;;;;;11.60;45.55;99385.13;5086581;28;20056;-75
2023/05/01 01:48:42;;;;;;;7.15;4.85;;;;;;;11.58;45.55;99379.06;5085504;28;20199;-75
2023/05/01 01:51:16;;;;;;;5.70;4.05;;;;;;;11.55;45.42;99379.25;5086272;28;20048;-75
2023/05/01 01:53:52;;;;;;;6.30;3.47;;;;;;;11.51;45.75;99372.41;5085315;28;20098;-74
2023/05/01 01:56:21;;;;;;;5.95;4.15;;;;;;;11.49;45.63;99374.28;5084690;28;20060;-75
2023/05/01 01:58:51;;;;;;;5.95;3.97;;;;;;;11.47;45.82;99378.84;5086015;28;20308;-75
2023/05/01 02:01:19;;;;;;;6.70;4.65;;;;;;;11.41;45.84;99380.03;5086094;28;20055;-75
2023/05/01 02:03:47;;;;;;;5.07;4.57;;;;;;;11.41;46.11;99365.91;5086046;28;20043;-74
2023/05/01 02:06:17;;;;;;;6.22;3.97;;;;;;;10.99;46.04;99303.81;5086025;28;20285;-74
2023/05/01 02:08:46;;;;;;;7.82;4.03;;;;;;;11.17;45.98;99341.66;5085144;28;20033;-75
2023/05/01 02:11:15;;;;;;;4.90;3.65;;;;;;;11.29;46.23;99363.97;5085969;28;20044;-75
2023/05/01 02:13:44;;;;;;;7.80;3.58;;;;;;;11.28;46.18;99368.44;5084987;28;20112;-75
2023/05/01 02:16:13;;;;;;;6.47;4.22;;;;;;;11.21;46.09;99375.88;5086437;28;20121;-75
2023/05/01 02:18:40;;;;;;;8.57;4.15;;;;;;;11.13;46.41;99372.81;5085855;28;20102;-75
2023/05/01 02:21:08;;;;;;;6.95;4.20;;;;;;;11.05;46.39;99375.06;5084959;28;20036;-74
2023/05/01 02:23:37;;;;;;;5.70;4.10;;;;;;;11.05;46.45;99368.91;5086025;28;20327;-75
2023/05/01 02:26:04;;;;;;;7.95;4.55;;;;;;;10.68;46.43;99301.16;5086001;28;20044;-75
2023/05/01 02:28:32;;;;;;;6.38;3.90;;;;;;;10.92;46.48;99352.81;5086031;28;20211;-75
2023/05/01 02:30:59;;;;;;;7.05;4.20;;;;;;;10.67;46.67;99313.56;5084830;28;20247;-75
2023/05/01 02:33:26;;;;;;;6.38;3.75;;;;;;;10.91;46.74;99351.13;5084745;28;20313;-75
2023/05/01 02:35:52;;;;;;;6.10;4.25;;;;;;;10.89;46.77;99351.19;5086188;28;20052;-75
2023/05/01 02:38:20;;;;;;;5.38;4.10;;;;;;;10.86;46.75;99345.22;5085311;28;20166;-75
2023/05/01 02:40:53;;;;;;;7.03;4.45;;;;;;;10.75;47.00;99344.94;5085519;28;20103;-75
2023/05/01 02:43:22;;;;;;;4.95;4.38;;;;;;;10.69;47.23;99350.56;5084497;28;20060;-75
2023/05/01 02:45:51;;;;;;;6.07;3.92;;;;;;;10.50;47.22;99324.25;5085479;28;20070;-75
2023/05/01 02:48:23;;;;;;;6.47;4.20;;;;;;;10.66;47.27;99342.78;5086054;28;20104;-75
2023/05/01 02:50:51;;;;;;;6.50;5.00;;;;;;;10.02;47.32;99232.44;5085736;28;20040;-75
2023/05/01 02:53:19;;;;;;;7.75;4.80;;;;;;;10.63;47.41;99337.66;5085390;28;20040;-75
2023/05/01 02:55:48;;;;;;;5.93;4.95;;;;;;;10.53;48.03;99332.88;5086245;28;20202;-75
2023/05/01 02:58:15;;;;;;;5.15;4.25;;;;;;;10.52;48.24;99340.91;5085928;28;20053;-75
2023/05/01 03:00:43;;;;;;;6.07;5.28;;;;;;;10.50;48.48;99342.78;5084427;28;20055;-75
2023/05/01 03:03:10;;;;;;;7.60;4.78;;;;;;;10.43;48.51;99326.38;5085359;28;20052;-75
2023/05/01 03:05:38;;;;;;;5.13;4.30;;;;;;;10.44;48.90;99343.13;5085337;28;20313;-75
2023/05/01 03:08:05;;;;;;;9.48;5.53;;;;;;;10.40;49.16;99337.13;5089483;28;20044;-75
2023/05/01 03:10:32;;;;;;;5.25;4.75;;;;;;;10.39;49.18;99339.88;5089391;28;20044;-75
2023/05/01 03:13:00;;;;;;;7.85;4.72;;;;;;;10.36;49.35;99340.03;5089336;28;20041;-75
2023/05/01 03:15:27;;;;;;;6.10;4.88;;;;;;;9.08;49.50;99128.06;5089288;28;20040;-75
2023/05/01 03:17:54;;;;;;;6.32;5.13;;;;;;;9.90;49.62;99271.88;5089587;28;20036;-75
2023/05/01 03:20:21;;;;;;;7.35;5.53;;;;;;;9.62;49.82;99242.53;5088693;28;20047;-75
2023/05/01 03:22:47;;;;;;;6.55;5.50;;;;;;;10.22;50.00;99338.13;5088768;28;20040;-75
2023/05/01 03:25:15;;;;;;;6.50;5.18;;;;;;;10.21;50.21;99336.44;5089148;28;20041;-75
2023/05/01 03:27:41;;;;;;;7.57;6.13;;;;;;;10.19;50.40;99336.50;5089657;28;20053;-75
2023/05/01 03:30:11;;;;;;;10.02;6.00;;;;;;;10.15;50.76;99334.97;5089147;28;20350;-75
2023/05/01 03:32:38;;;;;;;5.35;4.80;;;;;;;10.12;50.60;99360.75;5089000;28;20082;-75
2023/05/01 03:35:06;;;;;;;7.80;5.60;;;;;;;10.09;50.52;99345.03;5088976;28;20201;-75
2023/05/01 03:37:33;;;;;;;7.82;5.82;;;;;;;10.02;50.77;99339.22;5088058;28;20064;-74
2023/05/01 03:40:00;;;;;;;6.25;5.15;;;;;;;10.01;50.75;99337.50;5089105;28;20036;-75
2023/05/01 03:42:27;;;;;;;7.45;5.60;;;;;;;10.00;50.78;99337.56;5087967;28;20279;-75
2023/05/01 03:44:54;;;;;;;7.32;5.10;;;;;;;9.95;50.94;99341.31;5088565;28;20045;-75
2023/05/01 03:47:22;;;;;;;6.90;5.45;;;;;;;9.94;51.06;99331.66;5088695;28;20037;-75
2023/05/01 03:49:49;;;;;;;8.85;5.47;;;;;;;9.90;50.99;99335.41;5087756;28;20185;-75
2023/05/01 03:52:16;;;;;;;7.50;5.50;;;;;;;9.90;51.12;99337.22;5089422;28;20224;-75
2023/05/01 03:54:43;;;;;;;7.22;4.57;;;;;;;9.88;51.09;99329.34;5088400;28;20086;-74
2023/05/01 03:57:13;;;;;;;6.95;5.13;;;;;;;9.51;51.17;99285.44;5088767;28;20044;-75
2023/05/01 03:59:42;;;;;;;8.25;6.05;;;;;;;9.84;51.17;99327.78;5088387;28;20036;-74
2023/05/01 04:02:09;;;;;;;6.60;5.28;;;;;;;9.46;51.26;99278.66;5087568;28;20102;-74
2023/05/01 04:04:37;;;;;;;8.40;5.63;;;;;;;9.82;51.45;99334.97;5087519;28;20070;-75
2023/05/01 04:07:04;;;;;;;6.00;4.78;;;;;;;9.49;51.35;99289.09;5087476;28;20055;-75
2023/05/01 04:09:31;;;;;;;6.78;5.50;;;;;;;9.75;51.52;99338.88;5088611;28;20036;-75
2023/05/01 04:11:57;;;;;;;6.28;5.13;;;;;;;9.74;51.62;99336.28;5088469;28;20082;-75
2023/05/01 04:14:24;;;;;;;7.30;5.88;;;;;;;9.74;51.64;99338.94;5088120;28;20281;-74
2023/05/01 04:16:51;;;;;;;5.35;4.85;;;;;;;9.72;51.77;99335.53;5088422;28;20044;-75
2023/05/01 04:19:18;;;;;;;6.30;5.55;;;;;;;9.71;51.67;99337.31;5087377;28;20040;-75
2023/05/01 04:21:46;;;;;;;7.57;5.75;;;;;;;9.68;51.71;99349.84;5088614;28;20050;-75
2023/05/01 04:24:15;;;;;;;7.05;5.57;;;;;;;9.67;51.87;99338.41;5088009;28;20060;-75
2023/05/01 04:26:42;;;;;;;7.07;5.45;;;;;;;9.66;51.95;99344.63;5087974;28;20239;-75
2023/05/01 04:29:09;;;;;;;7.53;5.55;;;;;;;9.65;52.05;99342.91;5088195;28;20055;-75
2023/05/01 04:31:36;;;;;;;6.75;5.30;;;;;;;9.66;52.00;99334.03;5087614;28;20106;-75
2023/05/01 04:34:02;;;;;;;8.35;5.53;;;;;;;9.65;52.04;99329.69;5087741;28;20044;-75
2023/05/01 04:36:31;;;;;;;9.57;5.55;;;;;;;9.67;52.27;99329.59;5087802;28;20098;-75
2023/05/01 04:38:59;;;;;;;6.90;5.03;;;;;;;9.65;52.31;99332.34;5088331;28;20300;-74
2023/05/01 04:41:28;;;;;;;8.13;5.60;;;;;;;9.58;52.21;99320.34;5088251;28;20055;-75
2023/05/01 04:43:54;;;;;;;7.35;5.68;;;;;;;9.63;52.39;99334.22;5086598;28;20045;-75
2023/05/01 04:46:21;;;;;;;7.13;5.65;;;;;;;9.25;52.44;99265.56;5087880;28;20063;-74
2023/05/01 04:48:48;;;;;;;8.68;5.40;;;;;;;9.68;52.69;99337.47;5087803;28;20040;-75
2023/05/01 04:51:14;;;;;;;6.97;5.20;;;;;;;9.71;52.61;99336.47;5087426;28;20045;-75
2023/05/01 04:53:41;;;;;;;9.13;6.13;;;;;;;9.72;52.67;99344.31;5087910;28;20048;-74
2023/05/01 04:56:09;;;;;;;9.55;6.75;;;;;;;9.55;52.74;99316.09;5087590;28;20285;-75
2023/05/01 04:58:36;;;;;;;7.78;6.10;;;;;;;9.78;52.58;99345.78;5086555;28;20041;-75
2023/05/01 05:01:03;;;;;;;7.57;5.38;;;;;;;9.78;52.57;99338.69;5087310;28;20044;-75
2023/05/01 05:03:29;;;;;;;8.80;5.57;;;;;;;9.79;52.30;99337.75;5087182;28;20047;-75
2023/05/01 05:05:56;;;;;;;7.60;5.53;;;;;;;9.78;52.72;99336.06;5087425;28;20055;-74
2023/05/01 05:08:23;;;;;;;9.00;6.18;;;;;;;9.82;52.59;99326.16;5087169;28;20044;-75
2023/05/01 05:10:55;;;;;;;7.75;5.63;;;;;;;9.85;52.38;99334.81;5087190;28;20036;-75
2023/05/01 05:13:24;;;;;;;9.75;5.32;;;;;;;9.88;52.50;99341.72;5086824;28;20045;-74
2023/05/01 05:15:50;;;;;;;7.38;5.25;;;;;;;9.89;52.42;99333.69;5086733;28;20185;-74
2023/05/01 05:18:17;;;;;;;8.57;6.30;;;;;;;9.93;52.33;99337.91;5086342;28;20037;-75
2023/05/01 05:20:44;;;;;;;5.47;4.75;;;;;;;9.63;52.15;99276.84;5086958;28;20251;-75
2023/05/01 05:23:11;;;;;;;8.93;5.57;;;;;;;9.99;52.04;99335.88;5087232;28;20272;-75
2023/05/01 05:25:38;;;;;;;6.93;4.97;;;;;;;10.03;51.72;99338.25;5086854;28;20097;-75
2023/05/01 05:28:05;;;;;;;7.32;5.07;;;;;;;9.87;51.02;99342.66;5085950;28;20042;-75
2023/05/01 05:30:33;;;;;;;8.30;5.22;;;;;;;9.72;50.60;99285.25;5086852;28;20055;-75
2023/05/01 05:32:59;;;;;;;5.85;4.78;;;;;;;9.91;50.23;99317.75;5087245;28;20041;-74
2023/05/01 05:35:26;;;;;;;8.07;5.22;;;;;;;10.09;50.04;99345.03;5085732;28;20064;-75
2023/05/01 05:37:53;;;;;;;8.40;4.65;;;;;;;10.12;49.80;99343.06;5085994;28;20048;-75
2023/05/01 05:40:20;;;;;;;7.03;4.45;;;;;;;10.16;49.98;99344.63;5086571;28;20208;-75
2023/05/01 05:42:46;;;;;;;6.82;4.47;;;;;;;10.21;50.03;99336.44;5085622;28;20036;-74
2023/05/01 05:45:13;;;;;;;7.47;4.72;;;;;;;10.21;49.79;99347.03;5085477;28;20046;-73
2023/05/01 05:47:41;;;;;;;6.30;5.05;;;;;;;9.25;49.76;99174.81;5086882;28;20056;-73
2023/05/01 05:50:09;;;;;;;7.05;4.43;;;;;;;10.31;49.58;99350.03;5085397;28;20047;-74
2023/05/01 05:52:35;;;;;;;8.75;5.43;;;;;;;10.37;49.44;99344.41;5086298;28;20049;-74
2023/05/01 05:55:02;;;;;;;7.75;5.22;;;;;;;10.41;49.57;99338.00;5086444;28;20289;-74
2023/05/01 05:57:29;;;;;;;7.75;5.97;;;;;;;10.46;49.54;99338.59;5085849;28;20289;-74
2023/05/01 05:59:57;;;;;;;10.30;6.93;;;;;;;10.48;49.59;99342.88;5086220;28;20251;-74
2023/05/01 06:02:24;;;;;;;8.32;5.40;;;;;;;10.35;49.68;99306.53;5086032;28;20043;-74
2023/05/01 06:04:52;;;;;;;7.05;5.68;;;;;;;10.36;49.59;99306.44;5085178;28;20204;-74
2023/05/01 06:07:19;;;;;;;7.57;5.10;;;;;;;10.57;49.63;99341.50;5086270;28;20207;-74
2023/05/01 06:09:46;;;;;;;8.70;5.47;;;;;;;10.61;49.55;99340.41;5086552;28;20048;-74
2023/05/01 06:12:12;;;;;;;9.20;5.55;;;;;;;10.66;49.51;99338.34;5085124;28;20041;-74
2023/05/01 06:14:39;;;;;;;7.13;5.03;;;;;;;10.72;49.41;99335.34;5085017;28;20036;-73
2023/05/01 06:17:06;;;;;;;7.30;5.38;;;;;;;10.78;49.09;99329.75;5085538;28;20174;-74
2023/05/01 06:19:33;;;;;;;9.40;5.95;;;;;;;10.58;48.76;99279.63;5085809;28;20070;-73
2023/05/01 06:22:01;;;;;;;8.77;5.80;;;;;;;10.92;48.64;99323.66;5084890;28;20082;-74
2023/05/01 06:24:28;;;;;;;7.07;5.03;;;;;;;11.01;48.61;99325.78;5085778;28;20273;-74
2023/05/01 06:26:55;;;;;;;6.82;5.40;;;;;;;11.16;48.41;99316.94;5085701;28;20040;-73
2023/05/01 06:29:22;;;;;;;7.10;4.75;;;;;;;11.32;48.06;99324.88;5086051;28;20053;-73
2023/05/01 06:31:48;;;;;;;9.88;6.13;;;;;;;11.50;47.78;99325.56;5085650;28;20044;-73
2023/05/01 06:34:16;;;;;;;7.25;5.53;;;;;;;11.65;47.04;99326.47;5085747;28;20047;-73
2023/05/01 06:36:42;;;;;;;9.30;5.55;;;;;;;11.55;47.01;99278.38;5085507;28;20058;-73
2023/05/01 06:39:10;;;;;;;6.78;5.20;;;;;;;11.96;46.24;99322.81;5085883;28;20239;-73
2023/05/01 06:41:37;;;;;;;6.15;5.03;;;;;;;12.17;46.23;99329.50;5085049;28;20036;-73
2023/05/01 06:44:05;;;;;;;9.13;4.95;;;;;;;12.08;45.58;99268.94;5084496;28;20089;-73
2023/05/01 06:46:31;;;;;;;8.23;5.65;;;;;;;12.55;44.91;99335.06;5085705;28;20115;-73
2023/05/01 06:48:58;;;;;;;7.03;5.40;;;;;;;12.67;44.81;99334.28;5084550;28;20296;-74
2023/05/01 06:51:25;;;;;;;7.95;5.47;;;;;;;12.88;44.42;99329.41;5085745;28;20036;-73
2023/05/01 06:53:51;;;;;;;6.93;5.47;;;;;;;13.04;44.27;99324.78;5085415;28;20052;-73
2023/05/01 06:56:20;;;;;;;8.15;5.30;;;;;;;12.90;43.85;99270.78;5084462;28;20052;-73
2023/05/01 06:58:47;;;;;;;8.82;6.03;;;;;;;13.35;43.83;99312.94;5084518;28;20045;-74
2023/05/01 07:01:13;;;;;;;11.90;5.65;;;;;;;12.89;43.49;99223.84;5084423;28;20044;-73
2023/05/01 07:03:40;;;;;;;7.22;4.97;;;;;;;13.64;43.53;99308.34;5085844;28;20036;-74
2023/05/01 07:06:07;;;;;;;9.18;5.03;;;;;;;13.79;43.12;99320.63;5085549;28;20102;-74
2023/05/01 07:08:34;;;;;;;8.10;5.65;;;;;;;13.62;43.31;99262.34;5085770;28;20056;-74
2023/05/01 07:11:01;;;;;;;9.13;6.00;;;;;;;13.91;42.35;99302.06;5085492;28;20064;-74
2023/05/01 07:13:29;;;;;;;6.90;5.18;;;;;;;14.01;42.90;99316.47;5084313;28;20258;-73
2023/05/01 07:15:56;;;;;;;8.20;5.78;;;;;;;13.99;42.62;99308.56;5084093;28;20040;-73
2023/05/01 07:18:22;;;;;;;8.48;5.55;;;;;;;14.02;42.46;99310.16;5084218;28;20086;-74
2023/05/01 07:20:49;;;;;;;6.82;5.28;;;;;;;14.07;42.67;99305.38;5084977;28;20040;-74
2023/05/01 07:23:16;;;;;;;7.78;5.97;;;;;;;13.57;42.83;99224.53;5085266;28;20323;-74
2023/05/01 07:25:44;;;;;;;7.10;5.25;;;;;;;14.00;42.96;99309.44;5084939;28;20033;-74
2023/05/01 07:28:11;;;;;;;7.00;4.90;;;;;;;14.00;43.18;99315.59;5084156;28;20098;-74
2023/05/01 07:30:40;;;;;;;7.05;5.05;;;;;;;14.03;42.46;99314.53;5085090;28;20040;-74
2023/05/01 07:33:07;;;;;;;6.43;5.03;;;;;;;13.77;42.46;99263.94;5085345;28;20045;-74
2023/05/01 07:35:33;;;;;;;8.18;5.20;;;;;;;13.67;42.44;99217.59;5084270;28;20212;-74
2023/05/01 07:38:00;;;;;;;6.85;5.18;;;;;;;14.31;42.38;99318.78;5084296;28;20269;-74
2023/05/01 07:40:27;;;;;;;8.40;5.60;;;;;;;14.31;42.25;99303.63;5083977;28;20090;-74
2023/05/01 07:42:54;;;;;;;6.55;4.75;;;;;;;14.37;42.10;99311.19;5084825;28;20051;-74
2023/05/01 07:45:21;;;;;;;7.60;5.22;;;;;;;14.35;42.58;99299.78;5084789;28;20048;-74
2023/05/01 07:47:49;;;;;;;6.45;4.85;;;;;;;14.45;42.53;99306.16;5067281;28;20036;-74
2023/05/01 07:50:17;;;;;;;6.57;5.38;;;;;;;14.56;42.51;99300.06;5084062;28;20082;-74
2023/05/01 07:52:44;;;;;;;7.80;5.28;;;;;;;14.67;42.24;99296.69;5083784;28;20040;-74
2023/05/01 07:55:11;;;;;;;8.95;6.45;;;;;;;14.66;42.42;99294.97;5088649;28;20225;-73
2023/05/01 07:57:38;;;;;;;7.45;5.30;;;;;;;14.62;42.55;99289.00;5087612;28;20064;-74
2023/05/01 08:00:06;;;;;;;7.63;5.30;;;;;;;14.26;42.67;99247.13;5088421;28;20090;-74
2023/05/01 08:02:33;;;;;;;6.38;4.82;;;;;;;14.61;42.73;99297.97;5087796;28;20041;-73
2023/05/01 08:05:02;;;;;;;7.47;4.70;;;;;;;14.72;42.68;99290.03;5087758;28;20123;-74
2023/05/01 08:07:29;;;;;;;11.65;5.40;;;;;;;14.80;42.45;99262.81;5088321;28;20040;-74
2023/05/01 08:09:56;;;;;;;7.00;5.45;;;;;;;14.90;41.89;99231.81;5088750;28;20068;-74
2023/05/01 08:12:23;;;;;;;8.90;5.47;;;;;;;15.20;42.07;99255.34;5087323;28;20186;-74
2023/05/01 08:14:49;;;;;;;6.95;5.50;;;;;;;15.46;42.01;99293.41;5087524;28;20124;-74
2023/05/01 08:17:16;;;;;;;9.88;5.60;;;;;;;15.47;41.98;99284.44;5087461;28;20050;-74
2023/05/01 08:19:44;;;;;;;8.63;5.55;;;;;;;15.57;42.26;99281.91;5087239;28;20044;-74
2023/05/01 08:22:13;;;;;;;6.97;6.15;;;;;;;15.64;42.24;99277.78;5087972;28;20040;-74
2023/05/01 08:24:40;;;;;;;6.13;5.18;;;;;;;15.69;41.99;99278.31;5088104;28;20224;-74
2023/05/01 08:27:07;;;;;;;7.95;5.65;;;;;;;15.62;42.29;99277.91;5087935;28;20216;-73
2023/05/01 08:29:34;;;;;;;7.75;5.40;;;;;;;15.47;42.76;99241.69;5070661;28;20101;-74
2023/05/01 08:32:01;;;;;;;8.55;5.80;;;;;;;15.57;42.80;99250.69;5087888;28;20339;-73
2023/05/01 08:34:28;;;;;;;6.35;5.35;;;;;;;15.44;42.87;99209.03;5087916;28;20041;-74
2023/05/01 08:36:54;;;;;;;6.00;5.05;;;;;;;16.01;42.39;99281.16;5070098;28;20044;-74
2023/05/01 08:39:22;;;;;;;7.40;5.43;;;;;;;16.04;42.33;99263.06;5087492;28;20048;-74
2023/05/01 08:41:49;;;;;;;6.60;5.10;;;;;;;16.03;42.35;99250.66;5087689;28;20040;-74
2023/05/01 08:44:17;;;;;;;9.07;5.53;;;;;;;16.16;42.41;99271.91;5087670;28;20123;-74
2023/05/01 08:46:48;;;;;;;7.47;6.00;;;;;;;16.15;42.12;99272.88;5086962;28;20037;-74
2023/05/01 08:49:16;;;;;;;5.97;4.93;;;;;;;16.24;42.91;99273.97;5087059;28;20044;-73
2023/05/01 08:51:46;;;;;;;7.78;5.47;;;;;;;16.31;42.08;99270.69;5087626;28;20037;-74
2023/05/01 08:54:14;;;;;;;6.28;5.53;;;;;;;16.20;42.67;99243.97;5087569;28;20296;-73
2023/05/01 08:56:43;;;;;;;7.85;5.32;;;;;;;16.48;42.44;99260.47;5086360;28;20041;-74
2023/05/01 08:59:11;;;;;;;7.68;5.38;;;;;;;16.44;42.38;99208.19;5087387;28;20354;-74
2023/05/01 09:01:38;;;;;;;7.10;5.50;;;;;;;16.91;42.22;99257.84;5086416;28;20044;-74
2023/05/01 09:04:07;;;;;;;6.88;5.18;;;;;;;16.94;41.87;99242.38;5086872;28;20235;-74
2023/05/01 09:06:35;;;;;;;7.95;5.47;;;;;;;16.91;41.98;99242.63;5087337;28;20048;-74
2023/05/01 09:09:01;;;;;;;6.72;5.57;;;;;;;16.90;42.02;99240.06;5086201;28;20052;-74
2023/05/01 09:11:29;;;;;;;6.63;4.78;;;;;;;16.78;42.16;99209.81;5087031;28;20293;-74
2023/05/01 09:13:57;;;;;;;10.13;5.38;;;;;;;17.08;41.33;99230.50;5086881;28;20079;-74
2023/05/01 09:16:24;;;;;;;6.13;4.88;;;;;;;16.85;41.28;99200.31;5087181;28;20231;-74
2023/05/01 09:18:52;;;;;;;6.03;5.43;;;;;;;16.59;41.64;99158.78;5087471;28;20107;-75
2023/05/01 09:21:19;;;;;;;5.85;4.43;;;;;;;16.82;41.82;99189.00;5086397;28;20045;-74
2023/05/01 09:23:45;;;;;;;6.93;5.30;;;;;;;17.18;41.29;99217.19;5087416;28;20051;-74
2023/05/01 09:26:12;;;;;;;6.55;4.28;;;;;;;17.21;41.16;99217.81;5086714;28;20036;-75
2023/05/01 09:28:41;;;;;;;6.68;4.35;;;;;;;17.04;40.91;99186.22;5085880;28;20044;-74
2023/05/01 09:31:23;;;;;;;8.77;4.85;;;;;;;17.35;40.56;99208.59;5086526;28;20208;-74
2023/05/01 09:33:55;;;;;;;5.75;3.95;;;;;;;17.07;40.33;99183.28;5085502;28;20044;-74
2023/05/01 09:36:23;;;;;;;7.55;4.38;;;;;;;16.66;41.10;99141.28;5086293;28;20279;-74
2023/05/01 09:38:50;;;;;;;8.77;4.07;;;;;;;16.63;41.44;99125.44;5085602;28;20060;-75
2023/05/01 09:41:17;;;;;;;6.28;4.25;;;;;;;17.00;41.38;99172.25;5085425;28;20082;-75
2023/05/01 09:43:50;;;;;;;4.75;3.90;;;;;;;17.28;40.79;99202.06;5085886;28;20066;-75
2023/05/01 09:46:17;;;;;;;8.75;4.07;;;;;;;17.32;41.73;99203.50;5085811;28;20052;-75
2023/05/01 09:48:55;;;;;;;6.07;4.45;;;;;;;17.35;40.38;99213.13;5086080;28;20040;-75
2023/05/01 09:51:24;;;;;;;6.40;4.18;;;;;;;17.31;40.93;99202.66;5085980;28;20094;-75
2023/05/01 09:53:52;;;;;;;6.30;4.13;;;;;;;17.30;41.12;99203.63;5086715;28;20047;-75
2023/05/01 09:56:20;;;;;;;7.22;4.88;;;;;;;17.08;41.58;99163.56;5086042;28;20205;-75
2023/05/01 09:58:47;;;;;;;6.88;5.13;;;;;;;17.28;41.17;99208.28;5086139;28;20071;-75
2023/05/01 10:01:14;;;;;;;5.85;3.72;;;;;;;17.34;41.40;99196.19;5085069;28;20036;-75
2023/05/01 10:03:42;;;;;;;4.88;3.60;;;;;;;17.40;41.66;99197.50;5085183;28;20044;-75
2023/05/01 10:06:11;;;;;;;5.13;3.97;;;;;;;17.41;41.17;99192.00;5085172;28;20043;-75
2023/05/01 10:08:46;;;;;;;5.03;3.40;;;;;;;17.02;41.32;99096.31;5086191;28;20041;-75
2023/05/01 10:11:12;;;;;;;6.53;4.43;;;;;;;17.62;41.26;99190.19;5085880;28;20040;-74
2023/05/01 10:13:39;;;;;;;5.22;3.70;;;;;;;17.67;41.13;99178.22;5085273;28;20052;-75
2023/05/01 10:18:48;;;;;;;6.68;4.00;;;;;;;17.73;41.64;99177.69;5580456;23;20099;-75
2023/05/01 10:21:16;;;;;;;8.75;4.72;;;;;;;17.64;41.36;99149.84;5026091;28;20116;-74
2023/05/01 10:23:43;;;;;;;5.35;4.38;;;;;;;17.82;41.69;99176.88;5026071;28;20041;-74
2023/05/01 10:26:15;;;;;;;7.65;4.57;;;;;;;17.88;41.11;99185.22;5026208;28;20306;-73
2023/05/01 10:28:44;;;;;;;7.15;4.78;;;;;;;17.84;41.32;99164.19;5026144;28;20056;-74
2023/05/01 10:31:12;;;;;;;5.50;4.28;;;;;;;17.78;41.87;99160.22;5026475;28;20038;-74
2023/05/01 10:33:40;;;;;;;7.30;4.00;;;;;;;17.72;41.31;99131.28;5026151;28;20296;-74
2023/05/01 10:36:11;;;;;;;5.63;4.15;;;;;;;17.18;41.46;99035.94;5025878;28;20077;-74
2023/05/01 10:38:44;;;;;;;6.03;4.35;;;;;;;17.94;41.60;99160.56;5026195;28;20049;-74
2023/05/01 10:41:11;;;;;;;6.90;4.30;;;;;;;17.98;41.84;99158.44;5025975;28;20053;-74
2023/05/01 10:43:38;;;;;;;6.50;4.05;;;;;;;17.98;41.57;99162.97;5026372;28;20042;-74
2023/05/01 10:46:27;;;;;;;7.15;4.00;;;;;;;18.00;41.17;99143.06;5026295;28;20042;-74
2023/05/01 10:48:59;;;;;;;5.30;4.13;;;;;;;17.51;41.78;99069.66;5025600;28;20046;-74
2023/05/01 10:51:27;;;;;;;6.75;4.22;;;;;;;17.47;41.68;99059.34;5024651;28;20300;-74
2023/05/01 10:54:26;;;;;;;6.72;3.78;;;;;;;17.92;41.64;99146.44;5024525;28;20042;-75
2023/05/01 10:56:54;;;;;;;6.20;3.72;;;;;;;18.01;41.93;99149.28;5024531;28;20037;-74
2023/05/01 10:59:21;;;;;;;6.55;4.22;;;;;;;18.03;42.12;99161.56;5024979;28;20096;-74
2023/05/01 11:01:50;;;;;;;4.85;3.88;;;;;;;18.06;41.92;99129.13;5026123;28;20189;-74
2023/05/01 11:04:47;;;;;;;4.80;4.13;;;;;;;18.13;42.31;99132.09;5025505;28;20080;-74
2023/05/01 11:07:16;;;;;;;5.82;4.18;;;;;;;18.18;42.06;99125.34;5024560;28;20046;-74
2023/05/01 11:09:46;;;;;;;6.15;4.18;;;;;;;18.24;41.92;99116.75;5025728;28;20320;-74
2023/05/01 11:12:14;;;;;;;4.60;3.72;;;;;;;18.36;41.76;99113.94;5025656;28;20225;-74
2023/05/01 11:15:03;;;;;;;4.95;3.65;;;;;;;18.43;41.17;99101.66;5025573;28;20060;-74
2023/05/01 11:17:45;;;;;;;4.45;3.38;;;;;;;17.92;40.98;99030.31;5024936;28;20198;-74
2023/05/01 11:20:14;;;;;;;6.30;4.40;;;;;;;18.34;41.10;99106.03;5025621;28;20049;-74
2023/05/01 11:22:46;;;;;;;4.15;3.58;;;;;;;18.17;41.16;99112.91;5025783;28;20048;-74
2023/05/01 11:25:21;;;;;;;4.05;3.30;;;;;;;18.13;41.59;99110.66;5025588;28;20065;-74
2023/05/01 11:27:48;;;;;;;4.18;3.20;;;;;;;17.68;41.55;99028.00;5026212;28;20038;-73
2023/05/01 11:30:16;;;;;;;4.28;3.22;;;;;;;18.13;42.14;99094.56;5011911;28;20125;-74
2023/05/01 11:32:45;;;;;;;6.03;3.28;;;;;;;17.98;41.79;99055.72;5029204;28;20072;-74
2023/05/01 11:35:18;;;;;;;6.20;3.50;;;;;;;18.18;41.33;99095.00;5027981;28;20142;-74
2023/05/01 11:37:45;;;;;;;5.93;3.22;;;;;;;18.17;41.99;99099.50;5028800;28;20084;-74
2023/05/01 11:40:24;;;;;;;5.40;3.50;;;;;;;18.19;42.75;99088.63;5028013;28;20034;-72
2023/05/01 11:42:59;;;;;;;110.25;15.52;;;;;;;17.81;42.93;99031.28;5028894;28;20113;-72
2023/05/01 11:45:26;;;;;;;4.65;3.03;;;;;;;18.09;42.72;99093.13;5028023;28;20038;-73